Time;durP1;ratioP1;P1;durP2;ratioP2;P2;SDS_P1;SDS_P2;PMS_P1;PMS_P2;Temp;Humidity;BMP_temperature;BMP_pressure;BME280_temperature;BME280_humidity;BME280_pressure;Samples;Min_cycle;Max_cycle;Signal;HPM_P1;HPM_P2
2021/06/29 00:00:30;;;;;;;38.63;36.43;;;17.80;99.90;;;;;;4951849;29;20460;-70
2021/06/29 00:03:01;;;;;;;38.80;36.60;;;17.80;99.90;;;;;;4952062;29;20452;-71
2021/06/29 00:05:30;;;;;;;38.90;36.37;;;17.80;99.90;;;;;;4951580;29;20461;-71
2021/06/29 00:07:57;;;;;;;38.93;36.63;;;17.80;99.90;;;;;;4951537;28;20986;-72
2021/06/29 00:10:24;;;;;;;41.57;39.00;;;17.80;99.90;;;;;;4951856;29;20456;-71
2021/06/29 00:12:52;;;;;;;40.63;37.83;;;17.80;99.90;;;;;;4951977;29;20461;-71
2021/06/29 00:15:19;;;;;;;41.00;38.07;;;17.90;99.90;;;;;;4951517;29;20452;-71
2021/06/29 00:17:46;;;;;;;37.30;35.30;;;17.90;99.90;;;;;;4954431;28;20453;-70
2021/06/29 00:20:14;;;;;;;35.60;33.80;;;17.90;99.90;;;;;;4955171;29;20472;-70
2021/06/29 00:22:43;;;;;;;35.80;33.90;;;17.80;99.90;;;;;;4954902;29;20460;-71
2021/06/29 00:25:12;;;;;;;36.73;34.60;;;17.80;99.90;;;;;;4955206;29;20463;-71
2021/06/29 00:27:40;;;;;;;34.93;33.13;;;17.80;99.90;;;;;;4955249;29;20671;-70
2021/06/29 00:30:08;;;;;;;35.60;33.80;;;17.80;99.90;;;;;;4955154;29;20476;-70
2021/06/29 00:32:35;;;;;;;34.33;32.57;;;17.80;99.90;;;;;;4954835;29;20461;-72
2021/06/29 00:35:01;;;;;;;32.33;30.70;;;17.80;99.90;;;;;;4954615;29;20966;-70
2021/06/29 00:37:28;;;;;;;29.37;28.07;;;17.80;99.90;;;;;;4954968;29;20464;-72
2021/06/29 00:39:56;;;;;;;27.43;26.13;;;17.80;99.90;;;;;;4954726;29;21021;-71
2021/06/29 00:42:23;;;;;;;26.40;25.20;;;17.90;99.90;;;;;;4954829;29;20812;-72
2021/06/29 00:44:50;;;;;;;25.90;24.30;;;17.90;99.90;;;;;;4954596;29;20444;-71
2021/06/29 00:47:16;;;;;;;24.33;23.23;;;18.00;99.90;;;;;;4954307;29;20448;-72
2021/06/29 00:49:43;;;;;;;23.83;22.63;;;18.00;99.90;;;;;;4957876;28;20502;-71
2021/06/29 00:52:12;;;;;;;23.33;22.23;;;18.00;99.90;;;;;;4963111;28;20453;-72
2021/06/29 00:54:40;;;;;;;23.03;21.90;;;18.00;99.90;;;;;;4954522;29;20955;-73
2021/06/29 00:57:10;;;;;;;22.57;21.07;;;18.00;99.90;;;;;;4954390;29;20459;-72
2021/06/29 00:59:39;;;;;;;22.00;21.00;;;18.00;99.90;;;;;;4954349;29;20455;-71
2021/06/29 01:02:06;;;;;;;22.60;21.50;;;18.00;99.90;;;;;;4954459;29;20846;-71
2021/06/29 01:04:33;;;;;;;21.90;20.80;;;18.10;99.90;;;;;;4954495;29;20456;-72
2021/06/29 01:07:00;;;;;;;22.30;21.07;;;18.20;99.90;;;;;;4954431;28;20825;-72
2021/06/29 01:09:27;;;;;;;21.57;20.57;;;18.20;99.90;;;;;;4953886;29;21033;-72
2021/06/29 01:11:54;;;;;;;20.77;19.77;;;18.30;99.90;;;;;;4954066;29;20455;-72
2021/06/29 01:14:22;;;;;;;20.77;19.60;;;18.40;99.90;;;;;;4954170;29;20453;-73
2021/06/29 01:16:49;;;;;;;21.03;19.93;;;18.30;99.90;;;;;;4954219;29;20455;-72
2021/06/29 01:19:19;;;;;;;20.57;19.57;;;18.30;99.90;;;;;;4954183;29;20932;-72
2021/06/29 01:21:50;;;;;;;20.73;19.83;;;18.30;99.90;;;;;;4954251;29;20555;-72
2021/06/29 01:24:22;;;;;;;21.10;19.90;;;18.30;99.90;;;;;;4954092;29;20459;-72
2021/06/29 01:26:58;;;;;;;20.07;18.97;;;18.30;99.90;;;;;;4953998;29;20527;-72
2021/06/29 01:29:37;;;;;;;18.23;17.43;;;18.30;99.90;;;;;;4953158;28;20546;-72
2021/06/29 01:32:03;;;;;;;18.70;17.70;;;18.30;99.90;;;;;;4954025;29;20812;-72
2021/06/29 01:34:30;;;;;;;17.30;16.50;;;18.40;99.90;;;;;;4953562;29;20484;-72
2021/06/29 01:36:58;;;;;;;18.60;17.50;;;18.30;99.90;;;;;;4953819;29;20464;-71
2021/06/29 01:39:25;;;;;;;18.53;17.63;;;18.30;99.90;;;;;;4953862;29;20455;-71
2021/06/29 01:41:51;;;;;;;19.50;18.17;;;18.30;99.90;;;;;;4953911;29;20464;-71
2021/06/29 01:44:23;;;;;;;19.13;18.30;;;18.30;99.90;;;;;;4953471;29;20461;-72
2021/06/29 01:46:52;;;;;;;19.77;18.87;;;18.20;99.90;;;;;;4953741;29;20456;-71
2021/06/29 01:49:24;;;;;;;21.50;20.60;;;18.20;99.90;;;;;;4953641;29;20496;-70
2021/06/29 01:51:51;;;;;;;24.17;22.87;;;18.10;99.90;;;;;;4953582;29;20453;-71
2021/06/29 01:54:19;;;;;;;27.40;26.13;;;18.10;99.90;;;;;;4953456;29;20470;-70
2021/06/29 01:56:47;;;;;;;28.87;27.47;;;18.10;99.90;;;;;;4953269;29;20460;-70
2021/06/29 01:59:15;;;;;;;30.50;29.10;;;18.10;99.90;;;;;;4953616;29;20777;-71
2021/06/29 02:01:43;;;;;;;31.10;29.57;;;18.00;99.90;;;;;;4953426;29;20480;-71
2021/06/29 02:04:11;;;;;;;30.00;28.50;;;18.00;99.90;;;;;;4953426;29;20453;-71
2021/06/29 02:06:37;;;;;;;30.47;28.97;;;17.90;99.90;;;;;;4953451;28;20476;-72
2021/06/29 02:09:07;;;;;;;31.70;30.30;;;17.90;99.90;;;;;;4952789;29;20522;-70
2021/06/29 02:11:36;;;;;;;32.60;31.07;;;17.90;99.90;;;;;;4953135;29;20468;-70
2021/06/29 02:14:03;;;;;;;33.20;31.50;;;17.80;99.90;;;;;;4953085;29;20971;-71
2021/06/29 02:16:30;;;;;;;34.73;33.00;;;17.90;99.90;;;;;;4953342;29;20456;-70
2021/06/29 02:18:57;;;;;;;34.70;33.00;;;17.90;99.90;;;;;;4953094;29;21018;-70
2021/06/29 02:21:23;;;;;;;36.20;34.13;;;17.90;99.90;;;;;;4953051;29;20452;-70
2021/06/29 02:23:50;;;;;;;37.17;35.00;;;17.90;99.90;;;;;;4952797;29;20825;-70
2021/06/29 02:26:17;;;;;;;35.70;33.80;;;17.90;99.90;;;;;;4952909;29;20456;-70
2021/06/29 02:28:46;;;;;;;36.13;34.23;;;17.90;99.90;;;;;;4952920;29;20484;-70
2021/06/29 02:31:13;;;;;;;37.43;35.23;;;17.80;99.90;;;;;;4952797;29;20463;-71
2021/06/29 02:33:40;;;;;;;36.50;34.40;;;17.80;99.90;;;;;;4952950;29;20563;-71
2021/06/29 02:36:07;;;;;;;37.07;34.57;;;17.70;99.90;;;;;;4952736;29;20456;-71
2021/06/29 02:38:34;;;;;;;36.77;34.60;;;17.80;99.90;;;;;;4952515;29;20456;-71
2021/06/29 02:41:00;;;;;;;35.33;33.53;;;17.70;99.90;;;;;;4952462;28;20958;-71
2021/06/29 02:43:27;;;;;;;35.93;34.13;;;17.80;99.90;;;;;;4952493;29;20452;-71
2021/06/29 02:45:55;;;;;;;35.33;33.53;;;17.70;99.90;;;;;;4952696;29;20816;-71
2021/06/29 02:48:22;;;;;;;35.90;34.10;;;17.70;99.90;;;;;;4952436;29;20464;-72
2021/06/29 02:50:49;;;;;;;36.63;34.47;;;17.70;99.90;;;;;;4952612;29;20448;-70
2021/06/29 02:53:15;;;;;;;35.53;33.73;;;17.70;99.90;;;;;;4952363;29;20459;-71
2021/06/29 02:55:42;;;;;;;34.30;32.70;;;17.60;99.90;;;;;;4952512;29;20456;-71
2021/06/29 02:58:09;;;;;;;36.10;34.00;;;17.70;99.90;;;;;;4952416;29;20453;-71
2021/06/29 03:00:36;;;;;;;36.73;34.83;;;17.70;99.90;;;;;;4952332;29;20463;-71
2021/06/29 03:03:04;;;;;;;36.90;35.10;;;17.80;99.90;;;;;;4952601;29;20467;-71
2021/06/29 03:05:31;;;;;;;36.70;34.80;;;17.90;99.90;;;;;;4952564;29;20460;-71
2021/06/29 03:07:58;;;;;;;38.20;36.27;;;17.90;99.90;;;;;;4952217;28;20507;-71
2021/06/29 03:10:25;;;;;;;38.47;36.40;;;17.90;99.90;;;;;;4952212;29;20990;-71
2021/06/29 03:12:52;;;;;;;37.93;35.83;;;17.90;99.90;;;;;;4952237;29;20453;-71
2021/06/29 03:15:18;;;;;;;38.93;36.83;;;17.90;99.90;;;;;;4952452;29;20460;-71
2021/06/29 03:17:45;;;;;;;39.63;36.93;;;18.00;99.90;;;;;;4952234;29;20456;-71
2021/06/29 03:20:14;;;;;;;40.53;38.20;;;17.90;99.90;;;;;;4952105;29;21202;-70
2021/06/29 03:22:41;;;;;;;40.20;38.10;;;17.90;99.90;;;;;;4952226;29;20453;-70
2021/06/29 03:25:09;;;;;;;40.30;38.10;;;17.80;99.90;;;;;;4952197;29;20460;-69
2021/06/29 03:27:36;;;;;;;38.93;36.83;;;17.90;99.90;;;;;;4952125;29;20441;-70
2021/06/29 03:30:05;;;;;;;39.23;36.93;;;17.80;99.90;;;;;;4951981;29;20507;-70
2021/06/29 03:32:31;;;;;;;38.00;36.00;;;17.80;99.90;;;;;;4952171;29;20463;-70
2021/06/29 03:34:58;;;;;;;36.27;34.37;;;17.80;99.90;;;;;;4952066;29;20828;-71
2021/06/29 03:37:26;;;;;;;37.40;35.50;;;17.70;99.90;;;;;;4952058;29;20456;-70
2021/06/29 03:39:53;;;;;;;36.60;34.70;;;17.70;99.90;;;;;;4951802;29;20825;-72
2021/06/29 03:42:19;;;;;;;38.30;36.30;;;17.70;99.90;;;;;;4951786;29;20460;-70
2021/06/29 03:44:48;;;;;;;38.73;36.53;;;17.70;99.90;;;;;;4951983;29;20456;-71
2021/06/29 03:47:15;;;;;;;38.77;36.47;;;17.70;99.90;;;;;;4951823;29;20463;-71
2021/06/29 03:49:41;;;;;;;41.63;39.10;;;17.70;99.90;;;;;;4951944;29;20826;-70
2021/06/29 03:52:08;;;;;;;40.33;37.83;;;17.80;99.90;;;;;;4953801;28;20460;-69
2021/06/29 03:54:36;;;;;;;42.37;39.80;;;17.90;99.90;;;;;;4955860;29;20770;-70
2021/06/29 03:57:03;;;;;;;39.70;37.70;;;17.90;99.90;;;;;;4955374;29;20452;-70
2021/06/29 03:59:30;;;;;;;39.30;36.87;;;17.90;99.90;;;;;;4955326;29;20456;-70
2021/06/29 04:01:56;;;;;;;38.87;36.70;;;17.90;99.90;;;;;;4955696;29;20966;-69
2021/06/29 04:04:23;;;;;;;39.63;37.37;;;17.90;99.90;;;;;;4955553;29;20799;-70
2021/06/29 04:06:50;;;;;;;40.10;37.70;;;17.80;99.90;;;;;;4955251;28;20480;-70
2021/06/29 04:09:16;;;;;;;40.70;38.30;;;17.80;99.90;;;;;;4955221;29;20496;-70
2021/06/29 04:11:44;;;;;;;40.57;38.07;;;17.80;99.90;;;;;;4955248;29;20459;-70
2021/06/29 04:14:11;;;;;;;41.30;38.70;;;17.90;99.90;;;;;;4955506;29;20459;-70
2021/06/29 04:16:38;;;;;;;41.40;39.07;;;17.90;99.90;;;;;;4955229;29;20463;-70
2021/06/29 04:19:04;;;;;;;44.13;41.20;;;17.90;99.90;;;;;;4954992;29;20973;-70
2021/06/29 04:21:31;;;;;;;40.60;38.20;;;17.80;99.90;;;;;;4955185;29;20795;-70
2021/06/29 04:24:04;;;;;;;39.30;37.20;;;17.80;99.90;;;;;;4955465;29;20452;-72
2021/06/29 04:26:31;;;;;;;39.43;37.13;;;17.70;99.90;;;;;;4955092;29;20548;-74
2021/06/29 04:28:59;;;;;;;36.87;34.90;;;17.70;99.90;;;;;;4954736;29;20599;-73
2021/06/29 04:31:27;;;;;;;36.23;34.23;;;17.70;99.90;;;;;;4954953;29;20864;-74
2021/06/29 04:33:54;;;;;;;36.30;34.40;;;17.70;99.90;;;;;;4955036;29;20460;-73
2021/06/29 04:36:21;;;;;;;34.37;32.77;;;17.70;99.90;;;;;;4954631;29;20459;-73
2021/06/29 04:38:48;;;;;;;31.10;29.70;;;17.50;99.90;;;;;;4954743;29;20448;-72
2021/06/29 04:41:14;;;;;;;28.63;27.33;;;17.40;99.90;;;;;;4954705;29;20852;-73
2021/06/29 04:43:43;;;;;;;28.37;27.07;;;17.50;99.90;;;;;;4954806;29;20460;-75
2021/06/29 04:46:11;;;;;;;29.07;27.47;;;17.60;99.90;;;;;;4954662;29;20914;-74
2021/06/29 04:48:39;;;;;;;27.00;25.90;;;17.70;99.90;;;;;;4954500;29;20452;-74
2021/06/29 04:51:07;;;;;;;27.20;25.90;;;17.70;99.90;;;;;;4954506;29;20495;-74
2021/06/29 04:53:34;;;;;;;29.43;27.90;;;17.80;99.90;;;;;;4954569;29;20457;-74
2021/06/29 04:56:01;;;;;;;28.27;26.93;;;17.90;99.90;;;;;;4954372;29;20457;-74
2021/06/29 04:58:27;;;;;;;28.43;26.73;;;18.00;99.90;;;;;;4954432;29;20457;-74
2021/06/29 05:00:54;;;;;;;28.20;26.60;;;18.00;99.90;;;;;;4954405;29;20460;-74
2021/06/29 05:03:22;;;;;;;27.00;25.70;;;18.10;99.90;;;;;;4954426;28;20476;-74
2021/06/29 05:05:49;;;;;;;27.77;26.47;;;18.10;99.90;;;;;;4954123;29;20519;-74
2021/06/29 05:08:17;;;;;;;27.47;26.00;;;18.10;99.90;;;;;;4954093;28;20488;-74
2021/06/29 05:10:43;;;;;;;29.53;28.13;;;18.30;99.90;;;;;;4954162;29;20865;-74
2021/06/29 05:13:10;;;;;;;29.50;27.90;;;18.30;99.90;;;;;;4954154;29;20883;-74
2021/06/29 05:15:37;;;;;;;28.43;27.10;;;18.40;99.90;;;;;;4954319;29;20464;-74
2021/06/29 05:18:03;;;;;;;29.33;27.77;;;18.50;99.90;;;;;;4954300;29;20849;-74
2021/06/29 05:20:31;;;;;;;29.80;27.90;;;18.60;99.90;;;;;;4954192;29;20452;-74
2021/06/29 05:22:58;;;;;;;30.27;28.47;;;18.60;99.90;;;;;;4954100;29;20471;-73
2021/06/29 05:25:25;;;;;;;28.77;27.33;;;18.60;99.90;;;;;;4953940;29;20453;-73
2021/06/29 05:27:51;;;;;;;29.77;28.27;;;18.60;99.90;;;;;;4953950;29;20479;-74
2021/06/29 05:30:19;;;;;;;29.73;28.03;;;18.60;99.90;;;;;;4953695;29;20488;-74
2021/06/29 05:32:46;;;;;;;28.33;26.80;;;18.70;99.90;;;;;;4953790;29;20984;-74
2021/06/29 05:35:13;;;;;;;28.03;26.70;;;18.60;99.90;;;;;;4953937;29;20456;-73
2021/06/29 05:37:41;;;;;;;27.80;26.40;;;18.60;99.90;;;;;;4954096;29;20453;-73
2021/06/29 05:40:09;;;;;;;25.87;24.70;;;18.50;99.90;;;;;;4953865;29;20456;-73
2021/06/29 05:42:35;;;;;;;26.40;25.10;;;18.40;99.90;;;;;;4953796;29;21121;-73
2021/06/29 05:45:03;;;;;;;25.67;24.17;;;18.40;99.90;;;;;;4953746;29;20460;-73
2021/06/29 05:47:32;;;;;;;26.43;25.13;;;18.60;99.90;;;;;;4953645;29;20812;-73
2021/06/29 05:49:59;;;;;;;25.47;24.27;;;18.70;99.90;;;;;;4953624;29;20551;-74
2021/06/29 05:52:26;;;;;;;26.17;24.87;;;18.80;99.90;;;;;;4953291;29;20977;-73
2021/06/29 05:54:54;;;;;;;26.07;24.67;;;18.90;99.90;;;;;;4953475;29;20463;-72
2021/06/29 05:57:21;;;;;;;26.10;24.70;;;19.00;99.90;;;;;;4953420;29;20452;-74
2021/06/29 05:59:47;;;;;;;26.40;25.03;;;19.10;99.90;;;;;;4953411;29;20484;-71
2021/06/29 06:02:14;;;;;;;25.83;24.40;;;19.10;99.90;;;;;;4953162;29;20459;-71
2021/06/29 06:04:41;;;;;;;24.83;23.20;;;19.20;99.90;;;;;;4953088;29;20832;-72
2021/06/29 06:07:07;;;;;;;24.00;22.80;;;19.10;99.90;;;;;;4953151;28;20465;-72
2021/06/29 06:09:34;;;;;;;23.40;22.20;;;19.30;99.90;;;;;;4952896;29;20496;-72
2021/06/29 06:12:03;;;;;;;23.47;22.23;;;19.50;99.90;;;;;;4952921;29;20464;-72
2021/06/29 06:14:30;;;;;;;22.43;21.37;;;19.60;99.90;;;;;;4952553;28;20457;-72
2021/06/29 06:16:57;;;;;;;22.27;21.17;;;19.80;99.90;;;;;;4952885;29;20444;-71
2021/06/29 06:19:24;;;;;;;21.30;20.20;;;19.90;99.90;;;;;;4952992;29;20686;-72
2021/06/29 06:21:51;;;;;;;22.27;20.87;;;20.10;99.90;;;;;;4952919;29;20449;-72
2021/06/29 06:24:18;;;;;;;21.47;20.30;;;20.30;99.90;;;;;;4952880;29;20476;-71
2021/06/29 06:26:45;;;;;;;22.33;21.00;;;20.60;99.90;;;;;;4952950;29;20452;-71
2021/06/29 06:29:13;;;;;;;20.80;19.80;;;20.60;99.90;;;;;;4952927;29;20445;-71
2021/06/29 06:31:39;;;;;;;20.83;19.73;;;20.70;99.90;;;;;;4952652;29;20519;-71
2021/06/29 06:34:07;;;;;;;19.37;18.50;;;20.90;99.90;;;;;;4952593;29;20464;-72
2021/06/29 06:36:34;;;;;;;18.90;18.10;;;21.20;99.90;;;;;;4952385;29;20452;-71
2021/06/29 06:39:00;;;;;;;20.90;19.80;;;21.70;99.90;;;;;;4952535;29;20475;-71
2021/06/29 06:41:27;;;;;;;19.17;18.30;;;22.60;99.90;;;;;;4952270;29;20459;-72
2021/06/29 06:43:54;;;;;;;19.73;18.70;;;23.80;99.90;;;;;;4952514;29;20445;-73
2021/06/29 06:46:22;;;;;;;19.67;18.63;;;24.70;99.90;;;;;;4952498;29;20459;-72
2021/06/29 06:48:48;;;;;;;18.60;17.80;;;25.00;99.90;;;;;;4952581;29;20453;-72
2021/06/29 06:51:16;;;;;;;17.30;16.60;;;25.30;99.90;;;;;;4952205;29;20488;-72
2021/06/29 06:53:43;;;;;;;18.10;17.30;;;25.70;99.90;;;;;;4952214;29;20449;-72
2021/06/29 06:56:14;;;;;;;18.13;17.40;;;26.20;99.90;;;;;;4952369;29;20946;-71
2021/06/29 06:58:41;;;;;;;18.10;17.00;;;26.90;99.90;;;;;;4952596;29;20433;-72
2021/06/29 07:01:07;;;;;;;17.50;16.63;;;27.50;99.90;;;;;;4952671;29;20463;-72
2021/06/29 07:03:36;;;;;;;16.20;15.50;;;28.00;99.90;;;;;;4952297;29;20460;-72
2021/06/29 07:06:02;;;;;;;16.20;15.50;;;28.00;99.90;;;;;;4951942;29;20958;-71
2021/06/29 07:08:29;;;;;;;16.20;15.60;;;28.30;99.90;;;;;;4951814;28;20844;-71
2021/06/29 07:10:57;;;;;;;16.33;15.53;;;28.10;99.90;;;;;;4952164;29;20488;-71
2021/06/29 07:13:23;;;;;;;15.80;15.10;;;28.30;99.90;;;;;;4952157;29;20466;-71
2021/06/29 07:15:50;;;;;;;16.00;15.40;;;28.70;99.80;;;;;;4952274;29;20459;-71
2021/06/29 07:18:18;;;;;;;15.97;15.40;;;29.50;97.80;;;;;;4951946;29;20464;-71
2021/06/29 07:20:46;;;;;;;17.03;16.20;;;29.80;96.10;;;;;;4952371;29;20456;-71
2021/06/29 07:23:14;;;;;;;15.93;15.33;;;29.80;94.40;;;;;;4952242;29;20454;-71
2021/06/29 07:25:41;;;;;;;16.40;15.80;;;29.60;95.70;;;;;;4952247;28;20459;-72
2021/06/29 07:28:08;;;;;;;16.90;15.70;;;29.40;96.50;;;;;;4955544;29;20459;-72
2021/06/29 07:30:36;;;;;;;16.43;15.83;;;29.90;95.10;;;;;;4953937;29;20494;-72
2021/06/29 07:33:04;;;;;;;15.70;15.20;;;30.00;94.40;;;;;;4983508;28;20455;-72
2021/06/29 07:35:32;;;;;;;16.87;16.27;;;30.10;94.20;;;;;;4994208;28;20796;-72
2021/06/29 07:38:00;;;;;;;16.33;15.73;;;30.70;92.80;;;;;;4993681;28;20447;-72
2021/06/29 07:40:29;;;;;;;16.37;15.67;;;31.30;93.00;;;;;;4994514;28;20517;-71
2021/06/29 07:42:56;;;;;;;14.20;13.70;;;31.30;91.90;;;;;;4994692;28;20451;-71
2021/06/29 07:45:25;;;;;;;14.40;13.90;;;30.60;87.40;;;;;;4994469;28;20462;-72
2021/06/29 07:47:52;;;;;;;15.03;14.50;;;29.80;90.30;;;;;;4994318;28;20457;-71
2021/06/29 07:50:19;;;;;;;15.10;14.50;;;29.10;90.60;;;;;;4994241;28;20537;-72
2021/06/29 07:52:46;;;;;;;15.00;14.40;;;29.60;91.50;;;;;;4994601;28;20453;-71
2021/06/29 07:55:14;;;;;;;13.60;13.10;;;29.70;90.80;;;;;;4994199;28;20933;-71
2021/06/29 07:57:41;;;;;;;13.70;13.30;;;30.00;88.70;;;;;;4994172;28;20832;-72
2021/06/29 08:00:09;;;;;;;13.83;13.40;;;29.30;90.10;;;;;;4994231;28;20790;-71
2021/06/29 08:02:36;;;;;;;14.03;13.53;;;29.40;89.10;;;;;;4994286;28;20671;-71
2021/06/29 08:05:03;;;;;;;14.03;13.57;;;29.10;90.00;;;;;;4994011;28;20949;-71
2021/06/29 08:07:30;;;;;;;14.03;13.47;;;28.80;91.20;;;;;;4994026;28;20474;-71
2021/06/29 08:09:57;;;;;;;14.57;13.87;;;28.40;90.50;;;;;;4993779;28;20467;-72
2021/06/29 08:12:25;;;;;;;14.10;13.60;;;29.00;91.50;;;;;;4993811;28;20463;-71
2021/06/29 08:14:51;;;;;;;13.50;13.00;;;29.00;90.60;;;;;;4993918;28;20967;-72
2021/06/29 08:17:18;;;;;;;13.93;13.53;;;29.00;89.30;;;;;;4993701;28;20466;-71
2021/06/29 08:19:45;;;;;;;14.10;13.50;;;29.20;90.50;;;;;;4993666;28;20463;-72
2021/06/29 08:22:12;;;;;;;14.10;13.70;;;29.60;90.10;;;;;;4993781;28;20509;-72
2021/06/29 08:24:39;;;;;;;14.40;13.80;;;29.90;86.20;;;;;;4993523;28;20446;-72
2021/06/29 08:27:07;;;;;;;14.30;13.70;;;29.60;88.00;;;;;;4993533;28;20458;-71
2021/06/29 08:29:35;;;;;;;14.40;13.90;;;29.90;86.70;;;;;;4993536;28;20458;-71
2021/06/29 08:32:01;;;;;;;13.30;12.90;;;30.60;86.70;;;;;;4993449;28;20501;-71
2021/06/29 08:34:28;;;;;;;14.27;13.60;;;30.90;79.10;;;;;;4993584;28;20960;-71
2021/06/29 08:36:55;;;;;;;14.00;13.50;;;30.40;80.90;;;;;;4993265;28;20455;-72
2021/06/29 08:39:22;;;;;;;13.90;13.30;;;30.20;80.20;;;;;;4993421;28;20462;-72
2021/06/29 08:41:48;;;;;;;13.53;13.13;;;29.70;83.20;;;;;;4993375;28;20458;-71
2021/06/29 08:44:15;;;;;;;14.77;13.90;;;29.40;81.90;;;;;;4993378;28;20450;-72
2021/06/29 08:46:44;;;;;;;13.40;13.00;;;29.90;81.80;;;;;;4993164;28;20461;-71
2021/06/29 08:49:12;;;;;;;14.10;13.70;;;29.70;81.20;;;;;;4993166;28;20450;-71
2021/06/29 08:51:39;;;;;;;14.00;13.50;;;29.70;83.00;;;;;;4993027;28;20570;-71
2021/06/29 08:54:40;;;;;;;14.27;13.57;;;30.30;81.50;;;;;;4993353;28;20463;-71
2021/06/29 08:57:07;;;;;;;13.37;12.90;;;30.70;80.00;;;;;;4987109;28;20759;-71
2021/06/29 08:59:34;;;;;;;13.13;12.70;;;30.80;79.70;;;;;;4992835;28;20819;-72
2021/06/29 09:02:03;;;;;;;13.57;13.07;;;31.00;79.00;;;;;;4992808;28;20451;-72
2021/06/29 09:04:44;;;;;;;13.97;13.47;;;30.80;78.40;;;;;;4992814;28;20446;-72
2021/06/29 09:07:22;;;;;;;13.20;12.80;;;30.70;79.40;;;;;;4992597;28;20497;-71
2021/06/29 09:09:53;;;;;;;14.07;13.57;;;30.10;81.00;;;;;;4992601;28;20487;-71
2021/06/29 09:12:40;;;;;;;13.43;13.03;;;29.80;82.40;;;;;;4992601;28;20487;-71
2021/06/29 09:15:25;;;;;;;13.73;13.33;;;30.20;82.70;;;;;;4992672;28;20637;-71
2021/06/29 09:17:55;;;;;;;13.97;13.47;;;31.30;78.90;;;;;;4992545;28;20450;-71
2021/06/29 09:20:28;;;;;;;14.20;13.60;;;31.70;76.10;;;;;;4992681;28;20446;-72
2021/06/29 09:22:56;;;;;;;14.37;13.87;;;32.00;76.60;;;;;;4992468;28;20457;-72
2021/06/29 09:25:25;;;;;;;14.63;14.13;;;31.50;78.20;;;;;;4992318;28;20513;-72
2021/06/29 09:27:52;;;;;;;14.37;13.87;;;31.50;78.40;;;;;;4992360;28;20461;-71
2021/06/29 09:30:30;;;;;;;14.33;13.83;;;32.20;76.00;;;;;;4991855;28;20948;-71
2021/06/29 09:33:01;;;;;;;13.57;13.07;;;31.90;77.50;;;;;;4992422;28;20932;-71
2021/06/29 09:35:29;;;;;;;14.67;14.07;;;30.80;81.10;;;;;;4992813;28;20457;-71
2021/06/29 09:37:57;;;;;;;13.83;13.23;;;30.50;81.80;;;;;;4992543;28;20450;-71
2021/06/29 09:40:26;;;;;;;14.50;13.90;;;30.80;81.20;;;;;;4992652;28;20462;-71
2021/06/29 09:42:53;;;;;;;14.33;13.83;;;31.80;79.60;;;;;;4992685;28;20458;-71
2021/06/29 09:45:33;;;;;;;14.80;14.20;;;31.90;77.10;;;;;;4992667;28;20493;-71
2021/06/29 09:48:02;;;;;;;14.13;13.63;;;31.50;79.00;;;;;;4992633;28;20482;-71
2021/06/29 09:50:38;;;;;;;14.80;14.20;;;31.80;79.00;;;;;;4991750;28;20545;-72
2021/06/29 09:53:16;;;;;;;14.37;13.77;;;31.90;78.80;;;;;;4992465;28;20451;-71
2021/06/29 09:55:45;;;;;;;14.10;13.60;;;32.50;75.70;;;;;;4992502;28;20608;-71
2021/06/29 09:58:13;;;;;;;14.80;14.30;;;32.30;75.30;;;;;;4990209;28;20510;-71
2021/06/29 10:00:45;;;;;;;14.00;13.50;;;32.90;75.10;;;;;;4992267;28;20446;-71
2021/06/29 10:03:26;;;;;;;13.97;13.50;;;32.10;76.70;;;;;;4992374;28;20458;-71
2021/06/29 10:05:55;;;;;;;14.53;13.93;;;31.70;76.00;;;;;;4992198;28;20451;-72
2021/06/29 10:08:29;;;;;;;13.83;13.33;;;31.10;78.70;;;;;;4991977;28;20479;-71
2021/06/29 10:11:14;;;;;;;14.30;13.70;;;31.80;76.50;;;;;;4992098;28;20493;-71
2021/06/29 10:13:44;;;;;;;14.17;13.67;;;32.50;75.80;;;;;;4991871;28;21038;-71
2021/06/29 10:16:13;;;;;;;13.60;13.10;;;32.20;74.50;;;;;;4991873;28;20451;-71
2021/06/29 10:18:48;;;;;;;13.90;13.40;;;31.90;75.10;;;;;;4991933;28;20873;-71
2021/06/29 10:21:18;;;;;;;14.00;13.60;;;31.00;77.50;;;;;;4991802;28;20541;-71
2021/06/29 10:23:45;;;;;;;14.60;14.10;;;32.20;76.80;;;;;;4991854;28;20562;-71
2021/06/29 10:26:13;;;;;;;14.43;13.93;;;33.10;72.30;;;;;;4991791;28;20465;-72
2021/06/29 10:28:41;;;;;;;15.37;14.87;;;33.70;71.70;;;;;;4991786;28;20447;-71
2021/06/29 10:31:08;;;;;;;14.80;14.20;;;34.50;69.50;;;;;;4991672;28;20875;-71
2021/06/29 10:33:36;;;;;;;15.23;14.63;;;35.70;64.30;;;;;;4991624;28;20459;-71
2021/06/29 10:36:05;;;;;;;15.10;14.40;;;35.50;64.50;;;;;;4991599;28;20473;-71
2021/06/29 10:38:33;;;;;;;15.07;14.57;;;35.40;63.80;;;;;;4991390;28;20458;-71
2021/06/29 10:41:01;;;;;;;16.83;15.93;;;35.60;63.10;;;;;;4991545;28;20447;-72
2021/06/29 10:43:28;;;;;;;15.60;15.00;;;36.00;61.70;;;;;;4991150;28;20462;-71
2021/06/29 10:45:55;;;;;;;15.47;14.97;;;35.90;60.30;;;;;;4990430;28;20459;-71
2021/06/29 10:48:24;;;;;;;14.83;14.33;;;35.20;61.30;;;;;;4991677;28;20458;-72
2021/06/29 10:50:52;;;;;;;14.80;14.10;;;32.70;66.20;;;;;;4991425;28;20550;-71
2021/06/29 10:53:38;;;;;;;14.93;14.43;;;32.10;69.10;;;;;;4989471;28;20450;-71
2021/06/29 10:56:07;;;;;;;14.47;14.07;;;31.20;70.20;;;;;;4990978;28;20458;-72
2021/06/29 10:58:36;;;;;;;14.10;13.60;;;31.30;70.50;;;;;;4990916;28;20454;-71
2021/06/29 11:01:29;;;;;;;14.40;13.90;;;31.40;70.30;;;;;;4990845;28;20463;-72
2021/06/29 11:03:57;;;;;;;14.17;13.67;;;31.50;70.70;;;;;;4989120;28;20451;-72
2021/06/29 11:06:43;;;;;;;13.80;13.30;;;31.30;69.60;;;;;;4990729;28;20455;-72
2021/06/29 11:09:17;;;;;;;14.17;13.70;;;30.80;71.90;;;;;;4990740;28;20577;-72
2021/06/29 11:12:21;;;;;;;13.60;13.10;;;30.80;73.00;;;;;;4990830;28;20553;-72
2021/06/29 11:14:49;;;;;;;14.33;13.83;;;31.70;72.60;;;;;;4990757;28;20458;-72
2021/06/29 11:17:16;;;;;;;14.37;13.87;;;31.10;73.20;;;;;;4990705;28;20697;-72
2021/06/29 11:20:06;;;;;;;14.60;14.10;;;32.10;71.60;;;;;;4990810;28;20817;-72
2021/06/29 11:22:53;;;;;;;14.33;13.93;;;33.50;68.60;;;;;;4990712;28;20443;-72
2021/06/29 11:25:47;;;;;;;15.90;15.40;;;35.00;66.00;;;;;;4990828;28;20459;-72
2021/06/29 11:28:16;;;;;;;15.50;14.90;;;35.80;63.30;;;;;;4990759;28;20447;-72
2021/06/29 11:31:02;;;;;;;15.70;15.00;;;36.00;62.50;;;;;;4990550;28;20965;-72
2021/06/29 11:33:42;;;;;;;16.10;15.50;;;36.50;61.30;;;;;;4990666;28;20453;-72
2021/06/29 11:36:50;;;;;;;15.27;14.77;;;37.10;59.00;;;;;;4990511;28;20453;-73
2021/06/29 11:39:34;;;;;;;15.07;14.57;;;36.30;58.60;;;;;;4990597;28;20454;-71
2021/06/29 11:42:23;;;;;;;14.93;14.33;;;36.00;59.00;;;;;;4990400;28;21012;-71
2021/06/29 11:44:53;;;;;;;15.93;15.37;;;35.10;61.50;;;;;;4983892;28;20469;-72
2021/06/29 11:47:21;;;;;;;14.30;13.83;;;34.90;61.70;;;;;;4990261;28;20742;-72
2021/06/29 11:49:52;;;;;;;14.30;13.80;;;34.80;60.80;;;;;;4990586;28;20812;-71
2021/06/29 11:52:22;;;;;;;13.97;13.57;;;35.00;60.60;;;;;;4990425;28;20486;-71
2021/06/29 11:54:56;;;;;;;15.07;14.57;;;35.20;60.80;;;;;;4990387;28;20451;-72
2021/06/29 11:57:24;;;;;;;13.97;13.30;;;35.50;60.70;;;;;;4990468;28;20458;-72
2021/06/29 11:59:53;;;;;;;13.73;13.23;;;34.50;62.10;;;;;;4990323;28;20446;-72
2021/06/29 12:02:22;;;;;;;14.13;13.57;;;34.20;61.40;;;;;;4989988;28;20447;-71
2021/06/29 12:04:57;;;;;;;14.13;13.63;;;33.90;62.30;;;;;;4989872;28;20480;-72
2021/06/29 12:07:36;;;;;;;13.60;13.20;;;34.40;60.90;;;;;;4989998;28;20478;-72
2021/06/29 12:10:11;;;;;;;13.80;13.30;;;35.60;58.60;;;;;;4990052;28;20446;-72
2021/06/29 12:12:38;;;;;;;13.73;13.23;;;36.00;58.10;;;;;;4991009;28;20481;-72
2021/06/29 12:15:09;;;;;;;13.90;13.40;;;36.20;56.90;;;;;;4993792;28;20569;-72
2021/06/29 12:17:37;;;;;;;14.60;14.10;;;36.10;56.40;;;;;;4993855;28;20859;-72
2021/06/29 12:20:09;;;;;;;13.97;13.47;;;35.80;57.10;;;;;;4993869;28;20454;-72
2021/06/29 12:22:38;;;;;;;14.93;14.33;;;36.10;56.90;;;;;;4993772;28;20644;-72
2021/06/29 12:25:09;;;;;;;14.50;14.10;;;36.50;56.60;;;;;;4993649;28;20461;-72
2021/06/29 12:27:43;;;;;;;14.60;14.00;;;35.30;57.60;;;;;;4993436;28;20446;-71
2021/06/29 12:30:25;;;;;;;13.57;13.17;;;35.10;58.50;;;;;;4993608;28;20455;-72
2021/06/29 12:32:52;;;;;;;13.93;13.53;;;34.40;58.10;;;;;;4993700;28;20497;-72
2021/06/29 12:35:19;;;;;;;14.43;13.83;;;33.90;59.00;;;;;;4993511;28;20450;-71
2021/06/29 12:37:59;;;;;;;14.33;13.83;;;33.80;59.70;;;;;;4993429;28;20889;-73